Time;durP1;ratioP1;P1;durP2;ratioP2;P2;SDS_P1;SDS_P2;PMS_P1;PMS_P2;Temp;Humidity;BMP_temperature;BMP_pressure;BME280_temperature;BME280_humidity;BME280_pressure;Samples;Min_cycle;Max_cycle;Signal;HPM_P1;HPM_P2
2022/03/06 00:00:28;;;;;;;0.68;0.68;;;;;;;-0.90;57.02;97082.19;29375;285;63009;-67
2022/03/06 00:00:59;;;;;;;0.60;0.60;;;;;;;-0.91;56.81;97080.56;29375;350;63005;-63
2022/03/06 00:01:31;;;;;;;0.60;0.60;;;;;;;-0.91;56.74;97082.41;29375;209;63009;-68
2022/03/06 00:02:03;;;;;;;0.70;0.70;;;;;;;-0.91;56.91;97080.56;29375;246;63005;-67
2022/03/06 00:02:35;;;;;;;0.60;0.60;;;;;;;-0.92;56.94;97076.25;29375;196;63009;-63
2022/03/06 00:03:08;;;;;;;0.70;0.70;;;;;;;-0.91;56.62;97075.22;29375;340;63005;-67
2022/03/06 00:03:40;;;;;;;0.70;0.70;;;;;;;-0.89;56.57;97077.69;29375;249;63009;-63
2022/03/06 00:04:11;;;;;;;0.70;0.70;;;;;;;-0.88;56.80;97080.13;29373;223;64009;-64
2022/03/06 00:04:43;;;;;;;0.62;0.62;;;;;;;-0.89;56.60;97075.81;29374;331;63004;-63
2022/03/06 00:05:14;;;;;;;0.60;0.60;;;;;;;-0.90;56.53;97079.53;29375;203;63004;-63
2022/03/06 00:05:46;;;;;;;0.80;0.80;;;;;;;-0.90;56.48;97084.84;29375;375;63009;-67
2022/03/06 00:06:17;;;;;;;0.70;0.70;;;;;;;-0.89;56.39;97077.69;29375;210;63004;-65
2022/03/06 00:06:49;;;;;;;0.70;0.70;;;;;;;-0.88;56.36;97072.13;29375;208;63016;-64
2022/03/06 00:07:21;;;;;;;0.60;0.60;;;;;;;-0.86;56.26;97074.59;29375;198;63000;-64
2022/03/06 00:07:55;;;;;;;0.60;0.60;;;;;;;-0.86;56.14;97075.41;29375;219;63009;-68
2022/03/06 00:08:26;;;;;;;0.70;0.70;;;;;;;-0.86;56.40;97075.41;29375;197;63005;-63
2022/03/06 00:08:57;;;;;;;0.62;0.62;;;;;;;-0.86;56.07;97078.06;29375;198;63009;-63
2022/03/06 00:09:28;;;;;;;0.65;0.65;;;;;;;-0.87;56.15;97073.75;29373;291;64009;-63
2022/03/06 00:10:00;;;;;;;0.70;0.70;;;;;;;-0.87;56.65;97079.09;29375;248;63009;-62
2022/03/06 00:10:31;;;;;;;0.60;0.60;;;;;;;-0.88;56.91;97077.47;29375;206;63005;-63
2022/03/06 00:11:03;;;;;;;0.60;0.60;;;;;;;-0.89;56.74;97075.00;29373;258;64013;-68
2022/03/06 00:11:34;;;;;;;0.60;0.60;;;;;;;-0.91;56.95;97075.22;29375;234;63005;-63
2022/03/06 00:12:07;;;;;;;0.70;0.70;;;;;;;-0.92;56.81;97076.25;29375;270;63009;-67
2022/03/06 00:12:38;;;;;;;0.70;0.70;;;;;;;-0.92;56.67;97081.59;29375;322;63010;-63
2022/03/06 00:13:11;;;;;;;0.60;0.60;;;;;;;-0.93;56.97;97077.28;29375;198;63009;-63
2022/03/06 00:13:43;;;;;;;0.70;0.70;;;;;;;-0.95;56.99;97083.84;29375;204;63004;-64
2022/03/06 00:14:14;;;;;;;0.70;0.70;;;;;;;-0.97;56.79;97076.09;29375;232;63008;-64
2022/03/06 00:14:45;;;;;;;0.70;0.70;;;;;;;-0.97;56.84;97078.75;29375;226;63014;-63
2022/03/06 00:15:19;;;;;;;0.60;0.60;;;;;;;-0.97;56.47;97078.75;29375;197;63019;-63
2022/03/06 00:15:51;;;;;;;0.60;0.60;;;;;;;-0.96;56.76;97077.72;29373;247;64009;-66
2022/03/06 00:16:22;;;;;;;0.70;0.70;;;;;;;-0.95;56.88;97082.00;29375;273;63009;-63
2022/03/06 00:16:53;;;;;;;0.60;0.60;;;;;;;-0.94;56.87;97074.84;29375;254;63005;-64
2022/03/06 00:17:24;;;;;;;0.70;0.70;;;;;;;-0.94;56.71;97074.84;29375;288;63009;-63
2022/03/06 00:17:56;;;;;;;0.70;0.70;;;;;;;-0.95;57.15;97074.03;29375;327;63005;-63
2022/03/06 00:18:27;;;;;;;0.60;0.60;;;;;;;-0.96;56.70;97069.72;29375;232;63009;-63
2022/03/06 00:18:58;;;;;;;0.70;0.70;;;;;;;-0.95;56.98;97074.03;29375;367;63005;-63
2022/03/06 00:19:29;;;;;;;0.60;0.60;;;;;;;-0.96;57.06;97069.72;29375;325;63018;-63
2022/03/06 00:20:02;;;;;;;0.70;0.70;;;;;;;-0.96;57.34;97076.91;29375;215;63004;-63
2022/03/06 00:20:34;;;;;;;0.57;0.57;;;;;;;-0.98;57.18;97076.28;29373;331;64013;-64
2022/03/06 00:21:05;;;;;;;0.60;0.60;;;;;;;-0.98;57.20;97073.63;29375;321;63004;-67
2022/03/06 00:21:38;;;;;;;0.70;0.70;;;;;;;-0.98;57.86;97082.44;29375;218;63009;-64
2022/03/06 00:22:10;;;;;;;0.70;0.70;;;;;;;-1.00;57.93;97079.19;29375;368;63004;-63
2022/03/06 00:22:42;;;;;;;0.60;0.60;;;;;;;-1.01;57.68;97078.34;29373;197;63009;-63
2022/03/06 00:23:14;;;;;;;0.70;0.70;;;;;;;-1.01;57.79;97077.53;29373;315;63005;-67
2022/03/06 00:23:45;;;;;;;0.60;0.60;;;;;;;-1.02;57.55;97075.91;29373;222;63009;-64
2022/03/06 00:24:17;;;;;;;0.70;0.70;;;;;;;-1.02;58.05;97086.56;29373;216;63005;-64
2022/03/06 00:24:48;;;;;;;0.70;0.70;;;;;;;-1.05;57.95;97076.38;29372;227;64013;-63
2022/03/06 00:25:20;;;;;;;0.60;0.60;;;;;;;-1.06;57.77;97080.06;29373;223;63005;-67
2022/03/06 00:25:52;;;;;;;0.60;0.60;;;;;;;-1.06;58.12;97088.03;29373;211;63009;-63
2022/03/06 00:26:25;;;;;;;0.60;0.60;;;;;;;-1.09;58.17;97085.81;29373;243;63005;-64
2022/03/06 00:26:56;;;;;;;0.70;0.70;;;;;;;-1.10;57.67;97090.31;29373;204;63009;-64
2022/03/06 00:27:27;;;;;;;0.60;0.60;;;;;;;-1.11;57.78;97082.53;29373;209;63004;-64
2022/03/06 00:27:58;;;;;;;0.70;0.70;;;;;;;-1.11;57.48;97087.88;29373;267;63019;-68
2022/03/06 00:28:30;;;;;;;0.70;0.70;;;;;;;-1.10;57.95;97086.84;29373;238;63004;-67
2022/03/06 00:29:01;;;;;;;0.70;0.70;;;;;;;-1.11;57.67;97088.69;29373;218;63009;-68
2022/03/06 00:29:32;;;;;;;0.60;0.60;;;;;;;-1.11;57.71;97087.88;29371;197;64008;-64
2022/03/06 00:30:06;;;;;;;1.35;1.27;;;;;;;-1.11;57.94;97087.88;29373;204;63008;-63
2022/03/06 00:30:37;;;;;;;14.68;13.40;;;;;;;-1.11;57.79;97088.69;29363;318;65005;-67
2022/03/06 00:31:09;;;;;;;0.70;0.70;;;;;;;-1.09;57.67;97091.94;29371;216;64014;-63
2022/03/06 00:31:40;;;;;;;0.77;0.77;;;;;;;-1.11;57.83;97085.22;29373;190;63005;-64
2022/03/06 00:32:12;;;;;;;0.70;0.70;;;;;;;-1.09;57.54;97085.81;29373;279;63009;-63
2022/03/06 00:32:44;;;;;;;0.62;0.62;;;;;;;-1.09;57.62;97077.81;29373;233;63014;-63
2022/03/06 00:33:18;;;;;;;0.70;0.70;;;;;;;-1.08;57.48;97079.47;29371;216;64013;-63
2022/03/06 00:33:50;;;;;;;0.70;0.70;;;;;;;-1.08;57.86;97084.78;29373;197;63005;-64
2022/03/06 00:34:22;;;;;;;0.70;0.70;;;;;;;-1.09;57.76;97086.62;29373;202;63016;-62
2022/03/06 00:34:53;;;;;;;0.60;0.60;;;;;;;-1.09;57.94;97091.13;29373;197;63010;-65
2022/03/06 00:35:26;;;;;;;0.70;0.70;;;;;;;-1.10;57.81;97085.00;29373;242;63009;-65
2022/03/06 00:35:57;;;;;;;0.60;0.60;;;;;;;-1.09;57.84;97085.81;29371;219;64009;-62
2022/03/06 00:36:31;;;;;;;0.70;0.70;;;;;;;-1.10;57.79;97089.50;29373;239;63009;-62
2022/03/06 00:37:05;;;;;;;0.70;0.70;;;;;;;-1.11;57.88;97087.88;29373;220;63004;-62
2022/03/06 00:37:36;;;;;;;0.70;0.70;;;;;;;-1.12;57.92;97087.06;29373;210;63008;-67
2022/03/06 00:38:08;;;;;;;0.60;0.60;;;;;;;-1.13;58.04;97089.94;29373;197;63005;-67
2022/03/06 00:38:39;;;;;;;0.70;0.70;;;;;;;-1.12;57.87;97086.25;29373;198;63009;-67
2022/03/06 00:39:11;;;;;;;0.62;0.62;;;;;;;-1.12;57.98;97080.91;29373;240;63005;-62
2022/03/06 00:39:43;;;;;;;0.80;0.80;;;;;;;-1.13;58.30;97084.59;29371;219;64029;-62
2022/03/06 00:40:15;;;;;;;0.60;0.60;;;;;;;-1.14;58.04;97077.62;29373;202;63005;-66
2022/03/06 00:40:46;;;;;;;0.70;0.70;;;;;;;-1.15;58.17;97086.66;29373;203;63009;-63
2022/03/06 00:41:18;;;;;;;0.70;0.70;;;;;;;-1.17;58.05;97086.88;29373;218;63005;-67
2022/03/06 00:41:49;;;;;;;0.70;0.70;;;;;;;-1.17;57.89;97086.88;29373;207;63011;-62
2022/03/06 00:42:20;;;;;;;0.60;0.60;;;;;;;-1.16;58.02;97079.69;29373;238;63004;-67
2022/03/06 00:42:53;;;;;;;0.68;0.68;;;;;;;-1.16;57.77;97079.69;29373;384;63009;-62
2022/03/06 00:43:24;;;;;;;0.70;0.70;;;;;;;-1.16;57.57;97080.53;29373;392;63004;-64
2022/03/06 00:43:55;;;;;;;0.60;0.60;;;;;;;-1.16;57.79;97080.53;29373;222;63009;-62
2022/03/06 00:44:27;;;;;;;0.70;0.70;;;;;;;-1.13;57.79;97080.09;29371;336;64023;-66
2022/03/06 00:44:58;;;;;;;0.73;0.73;;;;;;;-1.12;57.87;97081.72;29371;206;64013;-62
2022/03/06 00:45:30;;;;;;;0.60;0.60;;;;;;;-1.13;57.59;97080.09;29373;272;63005;-63
2022/03/06 00:46:10;;;;;;;0.70;0.70;;;;;;;-1.10;57.83;97079.66;29373;233;63009;-63
2022/03/06 00:46:42;;;;;;;0.70;0.70;;;;;;;-1.11;57.90;97083.34;29395;213;63005;-63
2022/03/06 00:47:13;;;;;;;0.70;0.70;;;;;;;-1.12;57.91;97084.38;29395;207;63009;-63
2022/03/06 00:47:44;;;;;;;0.70;0.70;;;;;;;-1.11;57.95;97085.22;29373;227;63010;-67
2022/03/06 00:48:16;;;;;;;0.70;0.70;;;;;;;-1.14;58.26;97082.97;29373;230;63005;-67
2022/03/06 00:48:47;;;;;;;0.70;0.70;;;;;;;-1.15;58.19;97081.34;29373;225;63004;-63
2022/03/06 00:49:19;;;;;;;0.60;0.60;;;;;;;-1.17;57.99;97088.72;29373;218;63009;-63
2022/03/06 00:49:51;;;;;;;0.70;0.70;;;;;;;-1.17;57.97;97083.41;29373;244;63004;-67
2022/03/06 00:50:25;;;;;;;0.70;0.70;;;;;;;-1.17;58.21;97075.41;29371;359;64013;-62
2022/03/06 00:50:57;;;;;;;0.60;0.60;;;;;;;-1.19;58.13;97080.13;29373;206;63011;-63
2022/03/06 00:51:28;;;;;;;0.70;0.70;;;;;;;-1.19;58.10;97088.13;29373;322;63008;-67
2022/03/06 00:52:00;;;;;;;0.70;0.70;;;;;;;-1.20;58.06;97075.84;29373;232;63004;-63
2022/03/06 00:52:31;;;;;;;0.70;0.70;;;;;;;-1.21;57.87;97075.00;29373;219;63008;-63
2022/03/06 00:53:03;;;;;;;0.70;0.70;;;;;;;-1.21;58.09;97084.84;29373;231;63005;-67
2022/03/06 00:53:34;;;;;;;0.60;0.60;;;;;;;-1.20;58.07;97081.97;29373;205;63009;-67
2022/03/06 00:54:06;;;;;;;0.60;0.60;;;;;;;-1.21;58.30;97093.66;29371;214;64009;-68
2022/03/06 00:54:37;;;;;;;5.07;4.68;;;;;;;-1.20;58.19;97089.16;29373;210;63009;-64
2022/03/06 00:55:09;;;;;;;0.70;0.70;;;;;;;-1.22;58.30;97092.03;29373;400;63005;-62
2022/03/06 00:55:42;;;;;;;0.70;0.70;;;;;;;-1.20;58.02;97094.47;29373;225;63009;-63
2022/03/06 00:56:13;;;;;;;0.80;0.80;;;;;;;-1.19;58.25;97093.44;29373;233;63004;-68
2022/03/06 00:56:44;;;;;;;1.17;1.17;;;;;;;-1.18;58.14;97097.72;29373;223;63009;-68
2022/03/06 00:57:15;;;;;;;0.70;0.70;;;;;;;-1.18;58.26;97087.09;29373;208;63004;-63
2022/03/06 00:57:46;;;;;;;0.60;0.60;;;;;;;-1.17;57.88;97094.03;29373;220;63009;-67
2022/03/06 00:58:18;;;;;;;0.70;0.70;;;;;;;-1.17;58.26;97089.53;29373;218;63008;-68
2022/03/06 00:58:49;;;;;;;0.70;0.70;;;;;;;-1.15;58.04;97092.00;29373;208;63008;-66
2022/03/06 00:59:21;;;;;;;0.60;0.60;;;;;;;-1.17;58.53;97089.53;29371;203;64008;-63
2022/03/06 00:59:52;;;;;;;0.70;0.70;;;;;;;-1.18;58.64;97095.06;29373;363;63009;-63
2022/03/06 01:00:23;;;;;;;0.70;0.70;;;;;;;-1.17;58.41;97099.38;29373;200;63016;-64
2022/03/06 01:00:55;;;;;;;0.70;0.70;;;;;;;-1.18;58.25;97098.56;29373;214;63025;-67
2022/03/06 01:01:29;;;;;;;0.70;0.70;;;;;;;-1.16;58.34;97096.50;29373;208;63005;-64
2022/03/06 01:02:01;;;;;;;0.70;0.70;;;;;;;-1.16;58.17;97095.69;29373;260;63009;-63
2022/03/06 01:02:32;;;;;;;0.70;0.70;;;;;;;-1.16;58.26;97095.69;29372;205;63005;-68
2022/03/06 01:03:04;;;;;;;0.60;0.60;;;;;;;-1.17;58.32;97094.03;29373;213;63009;-64
2022/03/06 01:03:38;;;;;;;0.60;0.60;;;;;;;-1.16;58.23;97098.34;29373;353;63005;-63
2022/03/06 01:04:10;;;;;;;0.70;0.70;;;;;;;-1.17;58.12;97094.03;29373;207;63024;-62
2022/03/06 01:04:42;;;;;;;0.60;0.60;;;;;;;-1.17;58.41;97094.03;29371;219;64009;-67
2022/03/06 01:05:14;;;;;;;0.60;0.60;;;;;;;-1.19;58.34;97091.59;29373;208;63009;-63
2022/03/06 01:05:49;;;;;;;0.60;0.60;;;;;;;-1.17;58.44;97096.72;29373;227;63004;-67
2022/03/06 01:06:20;;;;;;;0.62;0.62;;;;;;;-1.17;58.43;97104.69;29373;206;63008;-68
2022/03/06 01:06:51;;;;;;;0.57;0.57;;;;;;;-1.17;58.75;97099.38;29373;396;63004;-68
2022/03/06 01:07:22;;;;;;;0.68;0.68;;;;;;;-1.17;58.79;97096.72;29373;202;63009;-62
2022/03/06 01:07:54;;;;;;;0.70;0.70;;;;;;;-1.18;58.51;97097.72;29373;216;63005;-67
2022/03/06 01:08:25;;;;;;;0.70;0.70;;;;;;;-1.16;58.47;97106.31;29373;231;63009;-62
2022/03/06 01:08:56;;;;;;;0.60;0.60;;;;;;;-1.17;58.84;97099.38;29373;306;63005;-62
2022/03/06 01:09:28;;;;;;;0.68;0.68;;;;;;;-1.18;58.42;97095.06;29373;202;63009;-68
2022/03/06 01:10:03;;;;;;;0.70;0.70;;;;;;;-1.18;58.47;97101.22;29371;327;64009;-66
2022/03/06 01:10:37;;;;;;;0.60;0.60;;;;;;;-1.18;58.61;97097.72;29373;216;63009;-67
2022/03/06 01:11:08;;;;;;;0.62;0.62;;;;;;;-1.19;59.02;97101.44;29373;220;63005;-63
2022/03/06 01:11:42;;;;;;;0.70;0.70;;;;;;;-1.20;58.81;97097.94;29373;286;63009;-69
2022/03/06 01:12:17;;;;;;;0.70;0.70;;;;;;;-1.20;58.90;97094.47;29373;198;63004;-67
2022/03/06 01:13:03;;;;;;;1.58;1.58;;;;;;;-1.19;58.57;97098.75;29373;232;63009;-67
2022/03/06 01:13:35;;;;;;;1.15;1.15;;;;;;;-1.20;58.67;97094.47;29373;210;63004;-62
2022/03/06 01:14:06;;;;;;;0.70;0.70;;;;;;;-1.20;58.45;97094.47;29373;233;63008;-62
2022/03/06 01:14:37;;;;;;;0.60;0.60;;;;;;;-1.19;58.64;97096.09;29373;204;63005;-62
2022/03/06 01:15:09;;;;;;;0.70;0.70;;;;;;;-1.20;58.62;97097.13;29371;258;64014;-64
2022/03/06 01:15:42;;;;;;;0.70;0.70;;;;;;;-1.22;58.35;97097.34;29373;230;63001;-63
2022/03/06 01:16:14;;;;;;;0.70;0.70;;;;;;;-1.24;59.14;97099.41;29373;220;63009;-63
2022/03/06 01:16:46;;;;;;;0.70;0.70;;;;;;;-1.26;58.73;97100.62;29371;215;64009;-67
2022/03/06 01:17:17;;;;;;;0.60;0.60;;;;;;;-1.27;58.83;97099.00;29372;226;63009;-63
2022/03/06 01:17:52;;;;;;;0.70;0.70;;;;;;;-1.31;59.68;97103.94;29373;230;63005;-64
2022/03/06 01:18:24;;;;;;;0.70;0.70;;;;;;;-1.33;59.32;97094.53;29371;290;64013;-68
2022/03/06 01:18:55;;;;;;;0.70;0.70;;;;;;;-1.33;59.24;97102.50;29373;259;63004;-63
2022/03/06 01:19:27;;;;;;;0.60;0.60;;;;;;;-1.33;59.25;97099.84;29373;298;63009;-63
2022/03/06 01:19:58;;;;;;;0.60;0.60;;;;;;;-1.32;59.19;97106.81;29373;370;63004;-67
2022/03/06 01:20:29;;;;;;;0.70;0.70;;;;;;;-1.33;58.85;97099.84;29373;267;63009;-63
2022/03/06 01:21:01;;;;;;;0.70;0.70;;;;;;;-1.32;58.93;97102.31;29373;285;63004;-63
2022/03/06 01:21:32;;;;;;;0.70;0.70;;;;;;;-1.31;58.77;97097.78;29373;202;63008;-64
2022/03/06 01:22:04;;;;;;;0.70;0.70;;;;;;;-1.30;58.85;97104.75;29373;398;63004;-63
2022/03/06 01:22:35;;;;;;;0.70;0.70;;;;;;;-1.31;58.84;97095.94;29373;297;63009;-64
2022/03/06 01:23:08;;;;;;;0.70;0.70;;;;;;;-1.28;58.88;97108.03;29373;311;63005;-64
2022/03/06 01:23:39;;;;;;;0.70;0.70;;;;;;;-1.30;58.82;97100.25;29371;229;64014;-68
2022/03/06 01:24:11;;;;;;;0.70;0.70;;;;;;;-1.30;58.90;97105.56;29373;209;63008;-63
2022/03/06 01:24:42;;;;;;;0.65;0.65;;;;;;;-1.30;58.65;97104.75;29371;210;64013;-64
2022/03/06 01:25:14;;;;;;;0.60;0.60;;;;;;;-1.30;59.00;97108.22;29373;203;63005;-64
2022/03/06 01:25:45;;;;;;;0.70;0.70;;;;;;;-1.30;58.84;97104.75;29373;208;63021;-63
2022/03/06 01:26:18;;;;;;;0.60;0.60;;;;;;;-1.29;58.95;97106.38;29373;209;63005;-63
2022/03/06 01:26:49;;;;;;;0.70;0.70;;;;;;;-1.29;59.01;97106.38;29373;233;63009;-63
2022/03/06 01:27:20;;;;;;;0.70;0.70;;;;;;;-1.31;59.21;97103.13;29373;221;63009;-67
2022/03/06 01:27:51;;;;;;;0.62;0.62;;;;;;;-1.30;59.54;97104.75;29371;353;64028;-63
2022/03/06 01:28:23;;;;;;;0.70;0.70;;;;;;;-1.32;59.42;97104.16;29373;319;63004;-63
2022/03/06 01:28:54;;;;;;;0.70;0.70;;;;;;;-1.31;58.96;97105.78;29373;210;63008;-63
2022/03/06 01:29:25;;;;;;;0.70;0.70;;;;;;;-1.31;59.16;97103.94;29371;247;64008;-63
2022/03/06 01:29:56;;;;;;;0.60;0.60;;;;;;;-1.31;59.03;97113.75;29373;205;63009;-63
2022/03/06 01:30:27;;;;;;;0.70;0.70;;;;;;;-1.33;59.33;97100.66;29373;365;63005;-61
2022/03/06 01:30:59;;;;;;;0.70;0.70;;;;;;;-1.33;59.09;97105.19;29373;207;63009;-62
2022/03/06 01:31:31;;;;;;;0.65;0.65;;;;;;;-1.32;59.04;97106.81;29373;253;63005;-64
2022/03/06 01:32:03;;;;;;;0.65;0.65;;;;;;;-1.32;58.75;97096.16;29373;281;63009;-64
2022/03/06 01:32:34;;;;;;;0.60;0.60;;;;;;;-1.33;59.27;97110.50;29373;222;63005;-64
2022/03/06 01:33:05;;;;;;;0.60;0.60;;;;;;;-1.37;59.26;97108.25;29372;434;63009;-64
2022/03/06 01:33:39;;;;;;;0.70;0.70;;;;;;;-1.39;59.54;97107.66;29373;263;63005;-63
2022/03/06 01:34:10;;;;;;;0.70;0.70;;;;;;;-1.40;59.11;97099.91;29373;202;63012;-64
2022/03/06 01:34:41;;;;;;;0.70;0.70;;;;;;;-1.41;59.20;97099.09;29371;283;64009;-65
2022/03/06 01:35:13;;;;;;;0.77;0.77;;;;;;;-1.42;59.32;97101.97;29373;377;63009;-67
2022/03/06 01:35:44;;;;;;;0.62;0.62;;;;;;;-1.43;59.28;97106.47;29373;217;63004;-63
2022/03/06 01:36:15;;;;;;;1.05;1.05;;;;;;;-1.45;59.34;97107.72;29373;207;63009;-63
2022/03/06 01:36:47;;;;;;;0.60;0.60;;;;;;;-1.47;59.53;97105.25;29373;255;63004;-63
2022/03/06 01:37:18;;;;;;;0.70;0.70;;;;;;;-1.49;59.27;97107.31;29373;225;63025;-63
2022/03/06 01:37:49;;;;;;;4.00;3.90;;;;;;;-1.47;59.43;97109.75;29371;197;64009;-64
2022/03/06 01:38:20;;;;;;;0.70;0.70;;;;;;;-1.49;59.70;97109.97;29373;226;63009;-64
2022/03/06 01:38:51;;;;;;;0.70;0.70;;;;;;;-1.50;59.73;97104.84;29373;226;63005;-63
2022/03/06 01:39:22;;;;;;;0.60;0.60;;;;;;;-1.52;59.94;97113.06;29373;383;63009;-64
2022/03/06 01:39:54;;;;;;;0.70;0.70;;;;;;;-1.54;59.87;97109.78;29373;197;63005;-64
2022/03/06 01:40:25;;;;;;;0.70;0.70;;;;;;;-1.53;59.48;97110.59;29373;213;63009;-68
2022/03/06 01:40:56;;;;;;;0.70;0.70;;;;;;;-1.54;59.80;97104.47;29373;202;63004;-63
2022/03/06 01:41:28;;;;;;;0.70;0.70;;;;;;;-1.54;59.59;97104.47;29371;210;64013;-64
2022/03/06 01:41:59;;;;;;;0.60;0.60;;;;;;;-1.53;59.78;97111.41;29373;311;63004;-64
2022/03/06 01:42:30;;;;;;;4.05;3.87;;;;;;;-1.53;59.83;97111.41;29373;276;63009;-63
2022/03/06 01:43:02;;;;;;;0.62;0.62;;;;;;;-1.55;60.08;97110.00;29373;202;63004;-64
2022/03/06 01:43:33;;;;;;;0.70;0.70;;;;;;;-1.56;59.97;97106.50;29371;210;64013;-64
2022/03/06 01:44:11;;;;;;;0.65;0.65;;;;;;;-1.58;60.19;97113.88;29373;313;63004;-64
2022/03/06 01:44:45;;;;;;;0.60;0.60;;;;;;;-1.59;59.94;97106.94;29373;226;63008;-64
2022/03/06 01:45:19;;;;;;;0.85;0.85;;;;;;;-1.59;59.84;97106.13;29373;395;63005;-64
2022/03/06 01:45:51;;;;;;;1.27;1.27;;;;;;;-1.59;59.94;97106.13;29373;226;63009;-64
2022/03/06 01:46:22;;;;;;;0.70;0.70;;;;;;;-1.59;60.07;97116.75;29373;197;63005;-64
2022/03/06 01:46:53;;;;;;;0.70;0.70;;;;;;;-1.61;59.74;97109.00;29372;202;64009;-64
2022/03/06 01:47:54;;;;;;;0.70;0.70;;;;;;;-1.60;59.83;97109.81;29373;377;63005;-64
2022/03/06 01:48:25;;;;;;;0.70;0.70;;;;;;;-1.60;59.88;97109.81;29371;216;64013;-63
2022/03/06 01:48:56;;;;;;;0.65;0.65;;;;;;;-1.61;59.71;97109.00;29373;241;63004;-62
2022/03/06 01:49:27;;;;;;;0.70;0.70;;;;;;;-1.61;59.58;97103.66;29373;208;63024;-64
2022/03/06 01:49:59;;;;;;;0.60;0.60;;;;;;;-1.59;59.77;97106.13;29373;210;63004;-63
2022/03/06 01:50:32;;;;;;;0.70;0.70;;;;;;;-1.60;59.87;97110.63;29373;304;63009;-64
2022/03/06 01:51:04;;;;;;;0.70;0.70;;;;;;;-1.60;60.06;97110.63;29373;227;63004;-63
2022/03/06 01:51:35;;;;;;;0.60;0.60;;;;;;;-1.59;59.77;97106.13;29373;203;63009;-64
2022/03/06 01:52:07;;;;;;;0.68;0.68;;;;;;;-1.56;59.89;97106.50;29373;213;63005;-63
2022/03/06 01:52:38;;;;;;;0.70;0.70;;;;;;;-1.56;59.88;97106.50;29373;203;63009;-63
2022/03/06 01:53:12;;;;;;;0.70;0.70;;;;;;;-1.55;59.83;97102.00;29373;214;63005;-63
2022/03/06 01:53:43;;;;;;;0.60;0.60;;;;;;;-1.55;59.92;97107.34;29371;231;64013;-68
2022/03/06 01:54:15;;;;;;;0.70;0.70;;;;;;;-1.55;59.64;97105.50;29373;326;63005;-64
2022/03/06 01:54:46;;;;;;;0.65;0.65;;;;;;;-1.56;59.93;97103.84;29371;206;64013;-64
2022/03/06 01:55:19;;;;;;;0.70;0.70;;;;;;;-1.57;60.21;97104.87;29373;225;63005;-67
2022/03/06 01:55:51;;;;;;;0.70;0.70;;;;;;;-1.57;59.77;97099.56;29373;206;63009;-64
2022/03/06 01:56:23;;;;;;;0.70;0.70;;;;;;;-1.57;60.07;97104.87;29373;294;63004;-64
2022/03/06 01:56:54;;;;;;;0.60;0.60;;;;;;;-1.58;59.95;97100.59;29373;253;63009;-64
2022/03/06 01:57:26;;;;;;;1.05;1.05;;;;;;;-1.57;59.96;97094.25;29373;202;63004;-64
2022/03/06 01:58:00;;;;;;;0.70;0.70;;;;;;;-1.56;60.12;97095.88;29373;214;63009;-63
2022/03/06 01:58:32;;;;;;;0.60;0.60;;;;;;;-1.56;59.99;97093.22;29373;268;63004;-63
2022/03/06 01:59:04;;;;;;;0.60;0.60;;;;;;;-1.56;59.98;97092.41;29373;227;63009;-63
2022/03/06 01:59:35;;;;;;;0.60;0.60;;;;;;;-1.56;60.06;97095.88;29371;203;64009;-64
2022/03/06 02:00:13;;;;;;;0.70;0.70;;;;;;;-1.56;60.07;97095.88;29373;199;63009;-64
2022/03/06 02:00:49;;;;;;;0.70;0.70;;;;;;;-1.56;60.18;97097.72;29373;242;63005;-64
2022/03/06 02:01:21;;;;;;;0.70;0.70;;;;;;;-1.56;60.16;97098.53;29373;207;63009;-63
2022/03/06 02:01:52;;;;;;;0.70;0.70;;;;;;;-1.56;60.43;97095.88;29373;228;63005;-64
2022/03/06 02:02:23;;;;;;;0.70;0.70;;;;;;;-1.55;60.14;97086.88;29373;211;63009;-64
2022/03/06 02:02:55;;;;;;;0.70;0.70;;;;;;;-1.56;60.57;97093.22;29373;363;63005;-64
2022/03/06 02:03:26;;;;;;;0.70;0.70;;;;;;;-1.55;60.60;97086.03;29373;225;63009;-63
2022/03/06 02:03:59;;;;;;;0.70;0.70;;;;;;;-1.56;60.81;97087.88;29371;202;64009;-63
2022/03/06 02:04:31;;;;;;;0.70;0.70;;;;;;;-1.57;61.00;97082.78;29373;210;63009;-64
2022/03/06 02:05:03;;;;;;;0.70;0.70;;;;;;;-1.59;60.81;97083.00;29373;223;63014;-65
2022/03/06 02:05:34;;;;;;;1.00;1.00;;;;;;;-1.59;60.83;97093.62;29373;303;63009;-64
2022/03/06 02:06:08;;;;;;;0.70;0.70;;;;;;;-1.61;61.31;97098.34;29373;320;63004;-63
2022/03/06 02:06:40;;;;;;;0.70;0.70;;;;;;;-1.64;61.38;97096.09;29371;234;64014;-64
2022/03/06 02:07:11;;;;;;;0.60;0.60;;;;;;;-1.66;61.56;97084.84;29373;222;63005;-63
2022/03/06 02:07:43;;;;;;;0.70;0.70;;;;;;;-1.66;61.70;97094.69;29372;302;63009;-68
2022/03/06 02:08:14;;;;;;;0.70;0.70;;;;;;;-1.69;61.61;97090.59;29373;232;63005;-64
2022/03/06 02:08:46;;;;;;;0.60;0.60;;;;;;;-1.71;61.41;97087.31;29373;332;63009;-64
2022/03/06 02:09:18;;;;;;;0.70;0.70;;;;;;;-1.72;61.20;97088.34;29371;197;64009;-68
2022/03/06 02:09:49;;;;;;;0.60;0.60;;;;;;;-1.73;61.60;97089.37;29373;224;63009;-63
2022/03/06 02:10:20;;;;;;;0.70;0.70;;;;;;;-1.74;61.54;97093.09;29373;233;63005;-64
2022/03/06 02:10:54;;;;;;;0.70;0.70;;;;;;;-1.77;61.52;97093.50;29373;202;63009;-64
2022/03/06 02:11:26;;;;;;;0.90;0.90;;;;;;;-1.80;61.61;97094.75;29373;216;63004;-64
2022/03/06 02:12:47;;;;;;;0.65;0.65;;;;;;;-1.80;61.24;97088.59;29373;357;63004;-64
2022/03/06 02:13:18;;;;;;;0.70;0.70;;;;;;;-1.79;61.29;97079.59;29371;231;64013;-64
2022/03/06 02:13:50;;;;;;;0.80;0.80;;;;;;;-1.81;61.54;97085.12;29373;339;63004;-64
2022/03/06 02:14:21;;;;;;;0.70;0.70;;;;;;;-1.81;61.24;97086.97;29373;213;63009;-64
2022/03/06 02:14:55;;;;;;;0.68;0.68;;;;;;;-1.83;61.61;97089.03;29373;391;63005;-65
2022/03/06 02:15:27;;;;;;;0.60;0.60;;;;;;;-1.84;61.46;97082.87;29373;305;63009;-64
2022/03/06 02:15:58;;;;;;;0.70;0.70;;;;;;;-1.86;61.29;97084.13;29373;371;63005;-63
2022/03/06 02:16:32;;;;;;;0.70;0.70;;;;;;;-1.84;61.17;97087.38;29371;216;64013;-63
2022/03/06 02:17:04;;;;;;;0.80;0.80;;;;;;;-1.83;61.25;97086.38;29373;225;63005;-64
2022/03/06 02:17:37;;;;;;;0.70;0.70;;;;;;;-1.85;61.39;97091.06;29373;222;63009;-64
2022/03/06 02:18:08;;;;;;;0.60;0.60;;;;;;;-1.85;61.42;97091.06;29373;203;63005;-63
2022/03/06 02:18:40;;;;;;;0.68;0.68;;;;;;;-1.88;61.56;97094.16;29371;230;64013;-64
2022/03/06 02:19:14;;;;;;;0.70;0.70;;;;;;;-1.88;61.48;97086.16;29373;230;63004;-64
2022/03/06 02:19:57;;;;;;;0.60;0.60;;;;;;;-1.89;61.24;97089.84;29373;268;63009;-65
2022/03/06 02:20:28;;;;;;;0.65;0.65;;;;;;;-1.89;61.46;97089.84;29373;210;63004;-64
2022/03/06 02:21:06;;;;;;;0.70;0.70;;;;;;;-1.89;61.36;97089.84;29371;203;64013;-64
2022/03/06 02:21:37;;;;;;;0.70;0.70;;;;;;;-1.89;61.36;97079.22;29373;213;63004;-63
2022/03/06 02:22:09;;;;;;;0.70;0.70;;;;;;;-1.87;61.23;97088.63;29373;233;63009;-64
2022/03/06 02:22:43;;;;;;;0.70;0.70;;;;;;;-1.87;61.58;97085.16;29371;319;64009;-63
2022/03/06 02:23:15;;;;;;;0.70;0.70;;;;;;;-1.86;61.20;97084.13;29371;211;64014;-63
2022/03/06 02:23:47;;;;;;;0.70;0.70;;;;;;;-1.86;61.29;97089.44;29373;203;63005;-64
2022/03/06 02:24:18;;;;;;;0.80;0.80;;;;;;;-1.86;61.35;97089.44;29371;397;64029;-64
2022/03/06 02:24:50;;;;;;;0.65;0.65;;;;;;;-1.86;61.32;97089.44;29373;203;63005;-64
2022/03/06 02:25:28;;;;;;;0.70;0.70;;;;;;;-1.85;61.25;97081.25;29373;220;63009;-65
2022/03/06 02:25:59;;;;;;;0.70;0.70;;;;;;;-1.84;61.13;97082.87;29373;230;63004;-64
2022/03/06 02:26:30;;;;;;;0.60;0.60;;;;;;;-1.86;61.54;97084.94;29373;396;63009;-65
2022/03/06 02:27:02;;;;;;;0.70;0.70;;;;;;;-1.85;61.39;97085.75;29373;353;63004;-63
2022/03/06 02:27:33;;;;;;;0.60;0.60;;;;;;;-1.86;61.70;97081.47;29373;254;63009;-65
2022/03/06 02:28:09;;;;;;;0.70;0.70;;;;;;;-1.86;61.52;97086.78;29373;282;63004;-65
2022/03/06 02:28:42;;;;;;;0.70;0.70;;;;;;;-1.87;61.49;97088.63;29373;233;63023;-63
2022/03/06 02:29:13;;;;;;;0.70;0.70;;;;;;;-1.87;61.50;97090.47;29373;204;63015;-64
2022/03/06 02:29:46;;;;;;;0.70;0.70;;;;;;;-1.89;61.73;97090.66;29371;417;64014;-65
2022/03/06 02:30:23;;;;;;;0.70;0.70;;;;;;;-1.90;61.58;97088.22;29373;236;63005;-65
2022/03/06 02:30:56;;;;;;;0.70;0.70;;;;;;;-1.89;61.73;97089.84;29371;204;64013;-63
2022/03/06 02:31:27;;;;;;;0.70;0.70;;;;;;;-1.89;61.71;97092.50;29373;210;63005;-64
2022/03/06 02:32:00;;;;;;;0.62;0.62;;;;;;;-1.90;62.14;97093.53;29373;198;63014;-65
2022/03/06 02:32:32;;;;;;;0.62;0.62;;;;;;;-1.95;62.80;97091.50;29371;209;64009;-64
2022/03/06 02:33:06;;;;;;;0.70;0.70;;;;;;;-1.95;62.10;97090.69;29373;332;63009;-64
2022/03/06 02:33:37;;;;;;;0.70;0.70;;;;;;;-1.95;62.34;97096.81;29373;226;63004;-65
2022/03/06 02:34:08;;;;;;;0.70;0.70;;;;;;;-1.94;62.55;97092.31;29373;212;63015;-64